Terminal Aerodrome Forecast
Issued by NWS Pittsburgh, PA

Current Version | Previous Version | Text Only | Print | Product List | Glossary Off
Versions: 1 2 3 4 5 6 7 8 9 10 11 12 13 14 15 16 17 18 19 20 21 22 23 24 25 26 27 28 29 30 31 32 33

148
FTUS41 KPBZ 212333
TAFPIT
TAF
KPIT 212333Z 2200/2306 36008KT 3SM -RA BR OVC007
     FM220400 36005KT 3SM BR BKN015
      TEMPO 2207/2211 2SM BR
     FM221500 33004KT P6SM BKN025
     FM221700 32004KT P6SM -SHRA BKN035
     FM230000 35006KT P6SM BKN060=

USA.gov is the U.S. government's official web portal to all federal, state and local government web resources and services.